Time;durP1;ratioP1;P1;durP2;ratioP2;P2;SDS_P1;SDS_P2;PMS_P1;PMS_P2;Temp;Humidity;BMP_temperature;BMP_pressure;BME280_temperature;BME280_humidity;BME280_pressure;Samples;Min_cycle;Max_cycle;Signal;HPM_P1;HPM_P2
2023/06/29 00:01:55;;;;;;;12.07;8.53;;;18.80;1.00;;;;;;5017432;28;20430;-57
2023/06/29 00:04:25;;;;;;;11.57;9.10;;;18.80;21.50;;;;;;5017554;28;20221;-57
2023/06/29 00:06:54;;;;;;;14.17;8.40;;;18.80;3.30;;;;;;5017270;28;20199;-57
2023/06/29 00:09:21;;;;;;;15.57;7.93;;;18.80;5.50;;;;;;5017251;28;20429;-57
2023/06/29 00:11:46;;;;;;;9.97;8.27;;;18.80;6.50;;;;;;5017023;28;20417;-57
2023/06/29 00:14:15;;;;;;;11.30;8.23;;;18.80;1.00;;;;;;5017537;28;20519;-55
2023/06/29 00:16:41;;;;;;;12.37;8.83;;;18.90;1.00;;;;;;5016766;28;20222;-57
2023/06/29 00:19:07;;;;;;;10.23;8.03;;;18.80;1.00;;;;;;5017045;28;20509;-57
2023/06/29 00:21:33;;;;;;;10.60;8.10;;;18.80;1.00;;;;;;5017239;28;20517;-58
2023/06/29 00:23:59;;;;;;;12.67;8.80;;;18.80;1.00;;;;;;5017055;28;20212;-57
2023/06/29 00:26:28;;;;;;;12.40;9.20;;;18.80;1.00;;;;;;5016672;28;21009;-56
2023/06/29 00:28:54;;;;;;;12.17;8.57;;;18.80;1.00;;;;;;5016991;28;20187;-57
2023/06/29 00:31:22;;;;;;;10.83;8.90;;;18.70;1.00;;;;;;5017119;28;20549;-57
2023/06/29 00:33:47;;;;;;;10.10;8.60;;;18.70;1.00;;;;;;5016701;28;20644;-57
2023/06/29 00:36:21;;;;;;;15.37;10.10;;;18.70;2.10;;;;;;5016867;28;20551;-57
2023/06/29 00:38:46;;;;;;;14.13;10.23;;;18.80;1.00;;;;;;5017251;28;20184;-57
2023/06/29 00:41:12;;;;;;;15.17;10.90;;;18.80;1.00;;;;;;5016829;28;20414;-57
2023/06/29 00:43:42;;;;;;;16.47;11.57;;;18.70;1.00;;;;;;5016429;28;20187;-57
2023/06/29 00:46:10;;;;;;;14.03;9.07;;;18.70;1.00;;;;;;5016598;28;20644;-57
2023/06/29 00:48:37;;;;;;;12.73;11.27;;;18.70;1.00;;;;;;5016534;28;20415;-56
2023/06/29 00:51:06;;;;;;;16.07;11.00;;;18.80;1.00;;;;;;5016249;28;20422;-57
2023/06/29 00:53:31;;;;;;;13.10;11.40;;;18.80;1.00;;;;;;5016431;28;20468;-57
2023/06/29 00:55:59;;;;;;;12.33;10.60;;;18.80;1.00;;;;;;5016102;28;20507;-58
2023/06/29 00:58:25;;;;;;;14.13;11.30;;;18.70;1.00;;;;;;5016056;28;20230;-57
2023/06/29 01:00:50;;;;;;;17.23;13.37;;;18.70;1.00;;;;;;5016869;28;20433;-57
2023/06/29 01:03:22;;;;;;;15.37;12.00;;;18.70;5.60;;;;;;5015969;28;20418;-57
2023/06/29 01:05:55;;;;;;;21.93;12.40;;;18.70;7.20;;;;;;5016388;28;20548;-57
2023/06/29 01:08:26;;;;;;;20.40;14.50;;;18.70;25.80;;;;;;5016658;28;20497;-57
2023/06/29 01:10:52;;;;;;;16.40;13.20;;;18.70;25.10;;;;;;5016424;28;20473;-58
2023/06/29 01:13:19;;;;;;;21.33;15.30;;;18.60;45.80;;;;;;5016533;28;20418;-57
2023/06/29 01:15:46;;;;;;;22.13;16.27;;;18.60;61.10;;;;;;5015916;28;20450;-57
2023/06/29 01:18:12;;;;;;;20.23;15.93;;;18.60;80.40;;;;;;5016070;28;20426;-57
2023/06/29 01:20:39;;;;;;;22.87;15.97;;;18.60;91.70;;;;;;5015837;28;20418;-58
2023/06/29 01:23:14;;;;;;;18.20;16.23;;;18.60;99.90;;;;;;5015916;28;20879;-57
2023/06/29 01:25:41;;;;;;;21.27;16.63;;;18.60;99.90;;;;;;5015896;28;20413;-57
2023/06/29 01:28:08;;;;;;;20.60;17.30;;;18.50;99.90;;;;;;5016066;28;20413;-57
2023/06/29 01:30:39;;;;;;;19.93;17.50;;;18.60;99.90;;;;;;5016047;28;20425;-57
2023/06/29 01:33:05;;;;;;;24.30;19.20;;;18.50;99.90;;;;;;5015666;28;20910;-57
2023/06/29 01:35:31;;;;;;;23.17;19.20;;;18.60;99.90;;;;;;5016155;28;20424;-57
2023/06/29 01:38:06;;;;;;;24.33;19.20;;;18.60;99.90;;;;;;5015952;28;20418;-57
2023/06/29 01:40:34;;;;;;;20.20;16.97;;;18.60;99.90;;;;;;5015533;28;20190;-57
2023/06/29 01:43:00;;;;;;;25.90;18.80;;;18.60;99.90;;;;;;5015564;28;20428;-58
2023/06/29 01:45:26;;;;;;;21.87;18.80;;;18.50;99.90;;;;;;5015483;28;20738;-56
2023/06/29 01:47:52;;;;;;;25.70;19.47;;;18.50;99.90;;;;;;5014164;28;20861;-57
2023/06/29 01:50:19;;;;;;;24.93;19.70;;;18.50;99.90;;;;;;5015499;28;20428;-58
2023/06/29 01:52:44;;;;;;;25.60;21.13;;;18.60;99.90;;;;;;5015302;28;20481;-58
2023/06/29 01:55:11;;;;;;;28.03;22.30;;;18.60;99.90;;;;;;5015437;28;20415;-58
2023/06/29 01:57:37;;;;;;;25.70;20.80;;;18.60;99.90;;;;;;5015332;28;20697;-58
2023/06/29 02:00:06;;;;;;;26.50;20.93;;;18.60;99.90;;;;;;5015102;28;20483;-58
2023/06/29 02:02:31;;;;;;;28.67;23.00;;;18.60;99.90;;;;;;5015198;28;20426;-56
2023/06/29 02:04:58;;;;;;;26.60;21.97;;;18.60;99.90;;;;;;5015097;28;20956;-58
2023/06/29 02:07:24;;;;;;;29.57;23.00;;;18.60;99.90;;;;;;5014779;28;20327;-58
2023/06/29 02:09:51;;;;;;;29.73;23.57;;;18.50;99.90;;;;;;5015217;28;20422;-58
2023/06/29 02:12:17;;;;;;;27.73;22.20;;;18.50;99.90;;;;;;5015355;28;20890;-59
2023/06/29 02:14:43;;;;;;;30.67;23.90;;;18.50;99.90;;;;;;5014956;28;20414;-57
2023/06/29 02:17:09;;;;;;;34.20;25.10;;;18.50;99.90;;;;;;5014957;28;20818;-58
2023/06/29 02:19:34;;;;;;;36.00;24.67;;;18.50;99.90;;;;;;5015006;28;20179;-57
2023/06/29 02:22:00;;;;;;;25.57;22.53;;;18.50;99.90;;;;;;5015147;28;20191;-57
2023/06/29 02:24:26;;;;;;;35.40;26.37;;;18.40;99.90;;;;;;5014739;28;20274;-58
2023/06/29 02:26:52;;;;;;;38.30;27.60;;;18.40;99.90;;;;;;5015061;28;20188;-58
2023/06/29 02:29:18;;;;;;;34.33;26.53;;;18.40;99.90;;;;;;5014832;28;20191;-58
2023/06/29 02:31:43;;;;;;;30.37;25.40;;;18.40;99.90;;;;;;5014657;28;20935;-58
2023/06/29 02:34:09;;;;;;;34.47;26.30;;;18.50;99.90;;;;;;5014782;28;20181;-57
2023/06/29 02:36:35;;;;;;;34.73;27.10;;;18.50;99.90;;;;;;5014812;28;20646;-58
2023/06/29 02:39:00;;;;;;;39.63;25.50;;;18.40;99.90;;;;;;5014797;28;20532;-58
2023/06/29 02:41:26;;;;;;;32.40;27.77;;;18.40;99.90;;;;;;5014315;28;20281;-57
2023/06/29 02:43:52;;;;;;;33.63;25.43;;;18.40;1.00;;;;;;5014534;28;20183;-58
2023/06/29 02:46:18;;;;;;;36.87;29.00;;;18.30;1.00;;;;;;5014158;28;20739;-58
2023/06/29 02:48:44;;;;;;;37.67;29.10;;;18.30;1.00;;;;;;5014348;28;20498;-58
2023/06/29 02:51:09;;;;;;;38.30;28.20;;;18.30;1.00;;;;;;5014758;28;20530;-58
2023/06/29 02:53:35;;;;;;;40.17;28.93;;;18.30;1.00;;;;;;5014087;28;20304;-58
2023/06/29 02:56:01;;;;;;;34.77;28.67;;;18.30;1.00;;;;;;5014373;28;20206;-58
2023/06/29 02:58:26;;;;;;;32.87;27.57;;;18.30;1.00;;;;;;5014186;28;20191;-58
2023/06/29 03:00:53;;;;;;;39.67;30.47;;;18.30;1.00;;;;;;5014239;28;20286;-58
2023/06/29 03:03:18;;;;;;;35.30;29.23;;;18.40;1.00;;;;;;5014264;28;20450;-58
2023/06/29 03:05:44;;;;;;;43.30;31.80;;;18.30;1.00;;;;;;5014483;28;20632;-58
2023/06/29 03:08:09;;;;;;;38.13;30.60;;;18.30;1.00;;;;;;5013602;28;20624;-57
2023/06/29 03:10:35;;;;;;;41.93;33.33;;;18.40;1.00;;;;;;5013826;28;20182;-58
2023/06/29 03:13:00;;;;;;;42.23;30.90;;;18.40;1.00;;;;;;5013789;28;20694;-56
2023/06/29 03:15:26;;;;;;;39.33;31.17;;;18.40;1.00;;;;;;5014055;28;20179;-58
2023/06/29 03:17:52;;;;;;;41.43;31.93;;;18.30;1.00;;;;;;5013936;28;20272;-57
2023/06/29 03:20:17;;;;;;;41.97;32.07;;;18.30;1.00;;;;;;5013128;28;20191;-58
2023/06/29 03:22:43;;;;;;;36.67;31.27;;;18.30;1.00;;;;;;5014086;28;20323;-58
2023/06/29 03:25:11;;;;;;;39.90;30.60;;;18.40;1.00;;;;;;5013917;28;20199;-56
2023/06/29 03:27:37;;;;;;;37.40;29.90;;;18.40;1.00;;;;;;5014202;28;20652;-58
2023/06/29 03:30:03;;;;;;;42.03;32.90;;;18.40;1.00;;;;;;5013850;28;20520;-58
2023/06/29 03:32:29;;;;;;;40.10;31.37;;;18.40;1.00;;;;;;5013789;28;20216;-58
2023/06/29 03:34:55;;;;;;;40.70;31.10;;;18.50;1.00;;;;;;5014095;28;20429;-58
2023/06/29 03:37:20;;;;;;;43.73;31.60;;;18.40;1.00;;;;;;5013345;28;20211;-58
2023/06/29 03:39:46;;;;;;;41.30;32.50;;;18.40;1.00;;;;;;5013442;28;20187;-57
2023/06/29 03:42:11;;;;;;;45.40;33.47;;;18.40;1.00;;;;;;5013964;28;20258;-59
2023/06/29 03:44:39;;;;;;;45.33;32.50;;;18.50;1.00;;;;;;5013739;28;20181;-58
2023/06/29 03:47:06;;;;;;;40.23;31.90;;;18.40;1.00;;;;;;5013738;28;20190;-58
2023/06/29 03:49:32;;;;;;;49.83;33.57;;;18.30;1.00;;;;;;5013634;28;20422;-58
2023/06/29 03:51:57;;;;;;;38.60;31.27;;;18.40;1.00;;;;;;5013635;28;20432;-57
2023/06/29 03:54:23;;;;;;;46.03;33.60;;;18.40;1.00;;;;;;5014247;28;20810;-58
2023/06/29 03:56:48;;;;;;;45.80;34.97;;;18.40;1.00;;;;;;5013518;28;20288;-57
2023/06/29 03:59:14;;;;;;;45.13;31.93;;;18.40;1.00;;;;;;5013704;28;20274;-57
2023/06/29 04:01:39;;;;;;;41.60;32.77;;;18.40;1.00;;;;;;5013656;28;20210;-58
2023/06/29 04:04:05;;;;;;;39.33;31.87;;;18.40;1.00;;;;;;5013313;28;20184;-58
2023/06/29 04:06:31;;;;;;;40.80;32.53;;;18.50;1.00;;;;;;5013364;28;20191;-57
2023/06/29 04:08:56;;;;;;;42.70;31.73;;;18.50;1.00;;;;;;5013530;28;20229;-58
2023/06/29 04:11:22;;;;;;;44.03;33.37;;;18.50;1.00;;;;;;5013979;28;20210;-59
2023/06/29 04:13:47;;;;;;;39.53;31.50;;;18.50;1.00;;;;;;5013833;28;20519;-58
2023/06/29 04:16:13;;;;;;;38.37;29.33;;;18.40;1.00;;;;;;5013660;28;20296;-58
2023/06/29 04:18:39;;;;;;;37.60;29.10;;;18.40;21.00;;;;;;5013016;28;20192;-58
2023/06/29 04:21:04;;;;;;;42.93;31.60;;;18.50;60.50;;;;;;5013285;28;20186;-57
2023/06/29 04:23:30;;;;;;;41.73;30.97;;;18.50;76.20;;;;;;5013507;28;20179;-58
2023/06/29 04:25:55;;;;;;;45.37;30.83;;;18.50;10.10;;;;;;5013123;28;20183;-57
2023/06/29 04:28:21;;;;;;;46.10;33.00;;;18.60;1.00;;;;;;5013136;28;20183;-58
2023/06/29 04:30:46;;;;;;;43.70;31.30;;;18.60;1.00;;;;;;5013879;28;20217;-58
2023/06/29 04:33:14;;;;;;;46.07;32.17;;;18.60;1.00;;;;;;5017319;28;20628;-58
2023/06/29 04:35:44;;;;;;;41.27;32.00;;;18.60;1.00;;;;;;5016611;28;20249;-58
2023/06/29 04:38:10;;;;;;;41.33;31.70;;;18.70;1.00;;;;;;5017089;28;20456;-58
2023/06/29 04:40:39;;;;;;;43.87;32.50;;;18.70;1.00;;;;;;5016801;28;20481;-58
2023/06/29 04:43:06;;;;;;;44.00;31.20;;;18.70;1.00;;;;;;5017004;28;20508;-57
2023/06/29 04:45:32;;;;;;;46.53;33.20;;;18.80;1.00;;;;;;5016751;28;20836;-58
2023/06/29 04:47:59;;;;;;;41.80;30.80;;;18.70;1.00;;;;;;5016341;28;20878;-58
2023/06/29 04:50:26;;;;;;;41.97;29.83;;;18.70;1.00;;;;;;5016847;28;20418;-57
2023/06/29 04:52:55;;;;;;;46.70;29.37;;;18.80;1.00;;;;;;5016369;28;20465;-59
2023/06/29 04:55:22;;;;;;;40.27;29.40;;;18.70;1.00;;;;;;5016514;28;20430;-58
2023/06/29 04:57:48;;;;;;;45.20;30.20;;;18.80;1.00;;;;;;5016648;28;20469;-58
2023/06/29 05:00:14;;;;;;;37.53;28.70;;;18.90;1.00;;;;;;5016253;28;20491;-58
2023/06/29 05:02:41;;;;;;;44.97;30.60;;;18.90;1.00;;;;;;5016416;28;20211;-58
2023/06/29 05:05:07;;;;;;;38.23;28.60;;;19.00;1.00;;;;;;5016685;28;20429;-58
2023/06/29 05:07:33;;;;;;;36.33;27.00;;;19.00;1.00;;;;;;5016344;28;20434;-58
2023/06/29 05:09:59;;;;;;;38.67;29.00;;;19.00;1.00;;;;;;5015992;28;20433;-57
2023/06/29 05:12:25;;;;;;;38.03;28.73;;;19.00;1.00;;;;;;5016321;28;20288;-58
2023/06/29 05:14:50;;;;;;;40.50;28.00;;;19.10;1.00;;;;;;5016580;28;20183;-58
2023/06/29 05:17:17;;;;;;;37.45;28.17;;;19.10;99.90;;;;;;5015327;28;20741;-58
2023/06/29 05:19:43;;;;;;;36.30;27.17;;;19.00;1.00;;;;;;5015610;28;20670;-58
2023/06/29 05:22:09;;;;;;;33.40;26.00;;;19.10;1.00;;;;;;5016014;28;20435;-58
2023/06/29 05:24:34;;;;;;;43.00;28.53;;;19.10;99.90;;;;;;5015575;28;20410;-58
2023/06/29 05:27:00;;;;;;;35.13;27.03;;;19.10;99.90;;;;;;5015671;28;20282;-58
2023/06/29 05:29:25;;;;;;;39.63;26.60;;;19.20;99.90;;;;;;5015983;28;20191;-58
2023/06/29 05:31:51;;;;;;;40.60;27.47;;;19.20;99.90;;;;;;5014506;28;20218;-58
2023/06/29 05:34:17;;;;;;;41.10;26.87;;;19.20;99.90;;;;;;5015586;28;20187;-58
2023/06/29 05:36:42;;;;;;;35.10;24.60;;;19.20;99.90;;;;;;5015355;28;20269;-58
2023/06/29 05:39:08;;;;;;;35.90;26.47;;;19.30;99.90;;;;;;5015755;28;20632;-58
2023/06/29 05:41:33;;;;;;;32.70;24.03;;;19.30;99.90;;;;;;5015016;28;20638;-57
2023/06/29 05:43:59;;;;;;;32.47;24.10;;;19.30;99.90;;;;;;5014477;28;20190;-58
2023/06/29 05:46:25;;;;;;;37.63;24.90;;;19.40;99.90;;;;;;5015514;28;20197;-57
2023/06/29 05:48:51;;;;;;;27.03;21.37;;;19.50;99.90;;;;;;5015262;28;20492;-58
2023/06/29 05:51:16;;;;;;;30.80;22.77;;;19.50;99.90;;;;;;5015135;28;20194;-58
2023/06/29 05:53:42;;;;;;;35.20;23.50;;;19.50;99.90;;;;;;5015051;28;20278;-57
2023/06/29 05:56:07;;;;;;;33.37;23.37;;;19.50;99.90;;;;;;5015192;28;20531;-57
2023/06/29 05:58:33;;;;;;;32.23;20.87;;;19.50;99.90;;;;;;5015103;28;20346;-57
2023/06/29 06:00:58;;;;;;;32.47;22.37;;;19.60;99.90;;;;;;5015265;28;20187;-58
2023/06/29 06:03:24;;;;;;;36.03;23.57;;;19.60;99.90;;;;;;5014932;28;20295;-58
2023/06/29 06:05:50;;;;;;;36.20;23.90;;;19.60;99.90;;;;;;5015372;28;20211;-58
2023/06/29 06:08:15;;;;;;;37.53;23.20;;;19.60;99.90;;;;;;5015394;28;20493;-58
2023/06/29 06:10:41;;;;;;;34.97;23.37;;;19.50;99.90;;;;;;5015033;28;20188;-58
2023/06/29 06:13:07;;;;;;;38.47;22.57;;;19.50;99.90;;;;;;5014900;28;20621;-58
2023/06/29 06:15:34;;;;;;;34.07;23.13;;;19.50;99.90;;;;;;5014859;28;20196;-58
2023/06/29 06:17:59;;;;;;;33.97;21.80;;;19.50;99.90;;;;;;5015095;28;20243;-58
2023/06/29 06:20:25;;;;;;;32.93;21.30;;;19.50;99.90;;;;;;5014608;28;20460;-58
2023/06/29 06:22:51;;;;;;;35.27;21.67;;;19.50;99.90;;;;;;5014982;28;20234;-56
2023/06/29 06:25:17;;;;;;;35.97;22.13;;;19.60;99.90;;;;;;5013472;28;20278;-58
2023/06/29 06:27:44;;;;;;;28.63;20.80;;;19.70;99.90;;;;;;5015157;28;20196;-58
2023/06/29 06:30:10;;;;;;;31.00;20.57;;;19.80;99.90;;;;;;5015055;28;20429;-57
2023/06/29 06:32:39;;;;;;;33.53;20.40;;;19.90;99.90;;;;;;5014626;28;20429;-57
2023/06/29 06:35:07;;;;;;;36.03;20.20;;;20.00;99.90;;;;;;5014647;28;20969;-57
2023/06/29 06:37:34;;;;;;;31.90;19.70;;;20.00;81.60;;;;;;5013288;28;20829;-58
2023/06/29 06:40:00;;;;;;;35.73;21.20;;;20.00;70.90;;;;;;5014946;28;20413;-57
2023/06/29 06:42:26;;;;;;;32.77;20.97;;;20.10;54.70;;;;;;5014575;28;21043;-58
2023/06/29 06:44:54;;;;;;;31.23;18.57;;;20.00;90.20;;;;;;5014463;28;20807;-57
2023/06/29 06:47:20;;;;;;;33.63;20.43;;;20.20;84.90;;;;;;5014650;28;20274;-58
2023/06/29 06:49:47;;;;;;;33.77;20.10;;;20.30;42.30;;;;;;5014608;28;20874;-58
2023/06/29 06:52:12;;;;;;;30.50;20.57;;;20.40;45.90;;;;;;5014541;28;20183;-58
2023/06/29 06:54:38;;;;;;;42.13;20.40;;;20.50;1.00;;;;;;5014215;28;20461;-57
2023/06/29 06:57:04;;;;;;;25.80;19.30;;;20.60;1.00;;;;;;5014066;28;20370;-57
2023/06/29 06:59:29;;;;;;;32.33;20.77;;;20.70;1.00;;;;;;5014771;28;20588;-57
2023/06/29 07:01:55;;;;;;;30.63;20.33;;;20.80;1.00;;;;;;5014129;28;20573;-57
2023/06/29 07:04:21;;;;;;;30.10;19.50;;;20.90;1.00;;;;;;5013960;28;20187;-57
2023/06/29 07:06:46;;;;;;;32.03;20.03;;;21.00;1.00;;;;;;5013683;28;20274;-56
2023/06/29 07:09:12;;;;;;;32.83;19.60;;;21.10;1.00;;;;;;5013876;28;20183;-57
2023/06/29 07:11:38;;;;;;;31.33;18.10;;;21.20;1.00;;;;;;5014224;28;20632;-57
2023/06/29 07:14:04;;;;;;;29.90;18.60;;;21.30;1.00;;;;;;5014026;28;20587;-57
2023/06/29 07:16:30;;;;;;;30.67;19.00;;;21.50;1.00;;;;;;5014135;28;20219;-56
2023/06/29 07:19:08;;;;;;;33.23;19.97;;;21.70;1.00;;;;;;5013938;28;20427;-56
2023/06/29 07:21:33;;;;;;;31.50;20.50;;;21.70;1.00;;;;;;5013938;28;20206;-56
2023/06/29 07:23:59;;;;;;;29.87;19.40;;;21.90;1.00;;;;;;5014167;28;20426;-56
2023/06/29 07:26:25;;;;;;;29.07;19.30;;;22.10;1.00;;;;;;5014246;28;20197;-55
2023/06/29 07:28:51;;;;;;;34.57;21.07;;;22.20;1.00;;;;;;5014093;28;20254;-56
2023/06/29 07:31:17;;;;;;;29.70;20.90;;;22.20;1.00;;;;;;5014408;28;20753;-56
2023/06/29 07:33:42;;;;;;;33.03;20.47;;;22.30;1.00;;;;;;5014325;28;20241;-55
2023/06/29 07:36:08;;;;;;;28.00;17.83;;;22.40;1.00;;;;;;5013782;28;20218;-55
2023/06/29 07:38:34;;;;;;;30.00;19.70;;;22.70;1.00;;;;;;5013843;28;20183;-56
2023/06/29 07:41:00;;;;;;;30.50;18.10;;;22.90;1.00;;;;;;5013720;28;20233;-56
2023/06/29 07:43:25;;;;;;;33.27;19.77;;;23.20;1.00;;;;;;5013756;28;20193;-56
2023/06/29 07:45:51;;;;;;;27.23;18.87;;;23.80;1.00;;;;;;5013713;28;20186;-56
2023/06/29 07:48:17;;;;;;;31.33;18.53;;;24.20;1.00;;;;;;5014337;28;20186;-56
2023/06/29 07:50:42;;;;;;;29.03;19.97;;;24.50;1.00;;;;;;5013861;28;20268;-56
2023/06/29 07:53:08;;;;;;;33.20;19.63;;;24.30;1.00;;;;;;5013602;28;20800;-56
2023/06/29 07:55:34;;;;;;;30.97;19.93;;;24.10;1.00;;;;;;5014285;28;20241;-56
2023/06/29 07:58:00;;;;;;;35.17;20.33;;;23.90;1.00;;;;;;5013848;28;20217;-56
2023/06/29 08:00:25;;;;;;;26.50;18.40;;;23.90;1.00;;;;;;5013665;28;20182;-56
2023/06/29 08:02:51;;;;;;;33.87;21.27;;;23.90;1.00;;;;;;5013795;28;20253;-56
2023/06/29 08:05:17;;;;;;;31.93;18.73;;;23.90;1.00;;;;;;5013835;28;20712;-56
2023/06/29 08:07:43;;;;;;;32.13;20.30;;;24.00;1.00;;;;;;5017506;28;20271;-56
2023/06/29 08:10:09;;;;;;;31.93;20.90;;;24.00;1.00;;;;;;5017672;28;20229;-55
2023/06/29 08:12:34;;;;;;;34.93;18.57;;;24.00;1.00;;;;;;5017442;28;20944;-56
2023/06/29 08:15:00;;;;;;;31.40;21.00;;;24.10;1.00;;;;;;5017594;28;20410;-55
2023/06/29 08:17:26;;;;;;;32.40;20.10;;;24.10;1.00;;;;;;5017441;28;20201;-56
2023/06/29 08:19:51;;;;;;;35.47;20.67;;;23.90;1.00;;;;;;5017253;28;20544;-56
2023/06/29 08:22:17;;;;;;;26.60;18.43;;;23.90;1.00;;;;;;5017227;28;20212;-56
2023/06/29 08:24:42;;;;;;;34.03;22.00;;;23.90;1.00;;;;;;5016539;28;20190;-56
2023/06/29 08:27:08;;;;;;;39.43;21.60;;;24.00;1.00;;;;;;5016633;28;20186;-55
2023/06/29 08:29:34;;;;;;;34.50;20.73;;;24.00;1.00;;;;;;5017312;28;20186;-56
2023/06/29 08:32:00;;;;;;;37.87;19.17;;;24.00;1.00;;;;;;5016836;28;20187;-56
2023/06/29 08:34:26;;;;;;;28.43;18.43;;;24.10;1.00;;;;;;5016835;28;20583;-56
2023/06/29 08:36:51;;;;;;;33.60;19.57;;;24.70;1.00;;;;;;5016757;28;20534;-56
2023/06/29 08:39:17;;;;;;;34.00;21.37;;;25.10;1.00;;;;;;5016783;28;20278;-56
2023/06/29 08:41:42;;;;;;;29.37;19.87;;;25.30;1.00;;;;;;5016534;28;20180;-56
2023/06/29 08:44:08;;;;;;;35.67;23.10;;;25.30;99.90;;;;;;5016587;28;20272;-55
2023/06/29 08:46:37;;;;;;;30.70;18.63;;;25.30;99.90;;;;;;5016277;28;20535;-56
2023/06/29 08:49:06;;;;;;;36.50;20.40;;;25.20;1.00;;;;;;5016577;28;20189;-56
2023/06/29 08:51:34;;;;;;;31.87;18.73;;;25.30;99.90;;;;;;5016240;28;20895;-56
2023/06/29 08:54:01;;;;;;;32.87;21.33;;;25.50;99.90;;;;;;5016221;28;20557;-56
2023/06/29 08:56:28;;;;;;;43.23;21.13;;;25.50;99.90;;;;;;5016823;28;20872;-56
2023/06/29 08:58:55;;;;;;;28.10;19.40;;;25.40;99.90;;;;;;5015832;28;20454;-55
2023/06/29 09:01:22;;;;;;;37.87;20.60;;;25.20;99.90;;;;;;5016594;28;20407;-56
2023/06/29 09:03:49;;;;;;;33.03;20.83;;;25.50;99.90;;;;;;5015840;28;20423;-55
2023/06/29 09:06:15;;;;;;;34.30;20.67;;;25.90;99.90;;;;;;5016005;28;20426;-55
2023/06/29 09:08:41;;;;;;;33.00;19.50;;;26.40;99.90;;;;;;5016211;28;20412;-56
2023/06/29 09:11:06;;;;;;;32.17;20.70;;;26.60;99.90;;;;;;5016442;28;20411;-55
2023/06/29 09:13:33;;;;;;;39.00;20.97;;;26.60;99.90;;;;;;5016476;28;20425;-56
2023/06/29 09:16:03;;;;;;;28.40;19.10;;;26.60;99.90;;;;;;5016277;28;20180;-55
2023/06/29 09:18:29;;;;;;;33.20;20.07;;;26.80;99.90;;;;;;5015117;28;20741;-56
2023/06/29 09:20:55;;;;;;;35.27;19.37;;;27.00;99.90;;;;;;5016019;28;20525;-54
2023/06/29 09:23:21;;;;;;;32.30;20.53;;;26.70;99.90;;;;;;5016110;28;20497;-54
2023/06/29 09:25:49;;;;;;;31.27;20.00;;;26.40;99.90;;;;;;5016120;28;20580;-55
2023/06/29 09:28:16;;;;;;;35.30;21.27;;;26.00;99.90;;;;;;5015894;28;20510;-54
2023/06/29 09:30:41;;;;;;;35.90;20.13;;;25.70;99.90;;;;;;5015965;28;20442;-54
2023/06/29 09:33:14;;;;;;;31.80;21.53;;;25.60;99.90;;;;;;5015699;28;20915;-54
2023/06/29 09:35:45;;;;;;;42.03;21.87;;;25.70;99.90;;;;;;5015918;28;20180;-54
2023/06/29 09:38:11;;;;;;;32.77;22.03;;;25.90;99.90;;;;;;5015913;28;20513;-56
2023/06/29 09:40:53;;;;;;;34.03;19.97;;;26.10;99.90;;;;;;5015676;28;20423;-56
2023/06/29 09:43:21;;;;;;;37.80;21.27;;;26.30;99.90;;;;;;5016052;28;20315;-54
2023/06/29 09:45:47;;;;;;;38.30;21.80;;;26.40;99.90;;;;;;5015743;28;20411;-55
2023/06/29 09:48:13;;;;;;;35.40;20.20;;;26.30;99.90;;;;;;5015416;28;20426;-54
2023/06/29 09:50:42;;;;;;;32.90;20.40;;;26.10;99.90;;;;;;5015669;28;20188;-55
2023/06/29 09:53:09;;;;;;;36.10;20.40;;;26.00;99.90;;;;;;5014766;28;20475;-53
2023/06/29 09:55:36;;;;;;;46.90;21.80;;;25.80;99.90;;;;;;5015608;28;20413;-55
2023/06/29 09:58:02;;;;;;;33.40;22.30;;;25.40;99.90;;;;;;5015003;28;20517;-55
2023/06/29 10:00:28;;;;;;;37.37;22.80;;;25.40;99.90;;;;;;5015017;28;20419;-54
2023/06/29 10:02:54;;;;;;;31.30;20.70;;;25.40;99.90;;;;;;5015451;28;20194;-54
2023/06/29 10:05:21;;;;;;;40.63;21.80;;;25.20;99.90;;;;;;5015089;28;20188;-53
2023/06/29 10:07:49;;;;;;;34.10;20.90;;;25.30;99.90;;;;;;5015264;28;20422;-54
2023/06/29 10:10:18;;;;;;;33.63;21.40;;;25.30;99.90;;;;;;5014556;28;20469;-54
2023/06/29 10:12:48;;;;;;;36.67;20.87;;;25.30;99.90;;;;;;5015065;28;20442;-54
2023/06/29 10:15:15;;;;;;;36.00;18.80;;;25.40;99.90;;;;;;5015084;28;20853;-54
2023/06/29 10:17:46;;;;;;;34.00;19.90;;;25.50;99.90;;;;;;5014855;28;20455;-54
2023/06/29 10:20:15;;;;;;;35.07;21.63;;;25.40;99.90;;;;;;5015155;28;20427;-54
2023/06/29 10:22:42;;;;;;;32.17;20.27;;;25.20;99.90;;;;;;5014847;28;20769;-54
2023/06/29 10:25:14;;;;;;;30.90;19.87;;;25.00;99.90;;;;;;5014638;28;20430;-54
2023/06/29 10:27:40;;;;;;;38.20;20.10;;;24.70;99.90;;;;;;5015004;28;20407;-54
2023/06/29 10:30:06;;;;;;;30.80;20.00;;;24.40;99.90;;;;;;5014514;28;20758;-55
2023/06/29 10:32:34;;;;;;;40.13;21.00;;;24.10;99.90;;;;;;5014933;28;20426;-55
2023/06/29 10:35:07;;;;;;;31.40;18.90;;;24.00;99.90;;;;;;5015102;28;20590;-54
2023/06/29 10:37:37;;;;;;;36.33;20.73;;;24.00;99.90;;;;;;5014783;28;20481;-56
2023/06/29 10:40:18;;;;;;;34.40;21.03;;;23.80;99.90;;;;;;5014964;28;20447;-55
2023/06/29 10:42:50;;;;;;;38.37;19.83;;;23.70;99.90;;;;;;5014744;28;20404;-55
2023/06/29 10:45:18;;;;;;;34.70;19.80;;;23.70;99.90;;;;;;5014164;28;20423;-55
2023/06/29 10:47:56;;;;;;;37.57;19.40;;;23.60;99.90;;;;;;5014676;28;20426;-55
2023/06/29 10:50:43;;;;;;;33.27;19.27;;;23.50;99.90;;;;;;5014452;28;20954;-56
2023/06/29 10:53:14;;;;;;;33.40;18.43;;;23.50;99.90;;;;;;5014125;28;20475;-55
2023/06/29 10:56:00;;;;;;;33.27;19.73;;;23.50;99.90;;;;;;5014379;28;20844;-56
2023/06/29 10:58:30;;;;;;;30.50;19.30;;;23.40;99.90;;;;;;5014203;28;20460;-55
2023/06/29 11:00:56;;;;;;;34.33;20.33;;;23.40;99.90;;;;;;5014622;28;20408;-56
2023/06/29 11:03:23;;;;;;;33.33;19.63;;;23.40;99.90;;;;;;5013983;28;20792;-55
2023/06/29 11:05:50;;;;;;;28.33;17.83;;;23.20;99.90;;;;;;5014471;28;20276;-55
2023/06/29 11:08:16;;;;;;;34.93;21.27;;;23.20;99.90;;;;;;5014445;28;20433;-56
2023/06/29 11:10:41;;;;;;;29.50;20.10;;;23.10;99.90;;;;;;5014065;28;20418;-56
2023/06/29 11:13:09;;;;;;;34.20;20.80;;;23.10;99.90;;;;;;5014374;28;20312;-55
2023/06/29 11:15:35;;;;;;;36.80;21.30;;;23.10;99.90;;;;;;5014281;28;20634;-56
2023/06/29 11:18:04;;;;;;;40.50;21.50;;;23.10;99.90;;;;;;5014148;28;20508;-56
2023/06/29 11:20:30;;;;;;;31.60;18.77;;;22.90;99.90;;;;;;5014290;28;20517;-56
2023/06/29 11:22:57;;;;;;;38.83;19.87;;;22.90;99.90;;;;;;5013828;28;20531;-56
2023/06/29 11:25:23;;;;;;;31.03;18.50;;;22.80;99.90;;;;;;5014033;28;20424;-56
2023/06/29 11:27:48;;;;;;;31.30;20.00;;;22.70;99.90;;;;;;5013898;28;20425;-56
2023/06/29 11:30:14;;;;;;;31.20;17.50;;;22.60;99.90;;;;;;5014197;28;20417;-56
2023/06/29 11:32:41;;;;;;;27.30;17.80;;;22.60;1.00;;;;;;5013780;28;20186;-56
2023/06/29 11:35:09;;;;;;;32.03;17.93;;;22.60;1.00;;;;;;5013777;28;20232;-56
2023/06/29 11:37:36;;;;;;;28.27;17.80;;;22.60;1.00;;;;;;5013743;28;21010;-56
2023/06/29 11:40:07;;;;;;;32.20;18.57;;;22.60;1.00;;;;;;5013899;28;20941;-57
2023/06/29 11:42:36;;;;;;;31.40;19.70;;;22.50;1.00;;;;;;5017455;28;20415;-56
2023/06/29 11:45:07;;;;;;;36.63;18.40;;;22.40;1.00;;;;;;5017333;28;20417;-56
2023/06/29 11:47:33;;;;;;;31.27;18.47;;;22.30;1.00;;;;;;5016655;28;20404;-55
2023/06/29 11:50:00;;;;;;;34.03;20.00;;;22.30;1.00;;;;;;5016749;28;20560;-56
2023/06/29 11:52:35;;;;;;;29.00;17.47;;;22.20;1.00;;;;;;5017874;28;20188;-55
2023/06/29 11:55:03;;;;;;;27.30;17.90;;;22.20;1.00;;;;;;5017893;28;20409;-56
2023/06/29 11:57:37;;;;;;;28.93;18.63;;;22.30;1.00;;;;;;5017503;28;20476;-56
2023/06/29 12:00:30;;;;;;;31.70;19.20;;;22.30;1.00;;;;;;5017889;28;20692;-55
2023/06/29 12:02:57;;;;;;;30.97;18.80;;;22.40;1.00;;;;;;5014873;28;20436;-56
2023/06/29 12:05:28;;;;;;;34.90;19.27;;;22.50;1.00;;;;;;5017671;28;20413;-55
2023/06/29 12:07:54;;;;;;;30.77;17.97;;;22.50;1.00;;;;;;5017592;28;20428;-55
2023/06/29 12:10:22;;;;;;;24.70;18.03;;;22.50;1.00;;;;;;5016140;28;20425;-55
2023/06/29 12:12:56;;;;;;;39.87;20.87;;;22.60;1.00;;;;;;5015981;28;20429;-57
2023/06/29 12:15:24;;;;;;;30.37;19.90;;;22.60;1.00;;;;;;5016145;28;20414;-56
2023/06/29 12:17:50;;;;;;;26.80;18.83;;;22.60;1.00;;;;;;5017294;28;20945;-56
2023/06/29 12:20:21;;;;;;;31.00;21.40;;;22.60;1.00;;;;;;5017068;28;20984;-56
2023/06/29 12:22:55;;;;;;;36.80;19.80;;;22.50;1.00;;;;;;5017564;28;20415;-56
2023/06/29 12:25:22;;;;;;;30.70;19.63;;;22.50;1.00;;;;;;5017599;28;20425;-56
2023/06/29 12:27:49;;;;;;;34.00;19.87;;;22.50;1.00;;;;;;5017487;28;20439;-56
2023/06/29 12:30:20;;;;;;;30.23;18.10;;;22.60;1.00;;;;;;5017354;28;20410;-56
2023/06/29 12:32:47;;;;;;;23.80;15.90;;;22.70;1.00;;;;;;5017174;28;20467;-56